Time;durP1;ratioP1;P1;durP2;ratioP2;P2;SDS_P1;SDS_P2;PMS_P1;PMS_P2;Temp;Humidity;BMP_temperature;BMP_pressure;BME280_temperature;BME280_humidity;BME280_pressure;Samples;Min_cycle;Max_cycle;Signal;HPM_P1;HPM_P2
2022/05/09 00:00:00;;;;;;;21.25;4.65;;;7.60;99.90;;;;;;4966177;28;20035;-70
2022/05/09 00:02:26;;;;;;;19.63;4.35;;;7.60;99.90;;;;;;4968686;28;20035;-71
2022/05/09 00:04:52;;;;;;;12.23;4.30;;;7.60;99.90;;;;;;4964691;28;20389;-71
2022/05/09 00:07:18;;;;;;;15.40;4.75;;;7.50;99.90;;;;;;4969184;28;20047;-71
2022/05/09 00:09:44;;;;;;;16.23;4.38;;;7.50;99.90;;;;;;4967690;28;20125;-71
2022/05/09 00:12:10;;;;;;;19.27;4.55;;;7.50;99.90;;;;;;4965956;28;20134;-71
2022/05/09 00:14:36;;;;;;;20.27;4.20;;;7.40;99.90;;;;;;4965006;28;20414;-71
2022/05/09 00:17:02;;;;;;;17.27;5.00;;;7.40;99.90;;;;;;4965193;28;20047;-71
2022/05/09 00:19:27;;;;;;;20.05;5.22;;;7.30;99.90;;;;;;4965417;28;22091;-71
2022/05/09 00:21:53;;;;;;;17.73;5.10;;;7.30;99.90;;;;;;4962734;28;20055;-71
2022/05/09 00:24:20;;;;;;;14.95;4.20;;;7.30;99.90;;;;;;4968009;28;20489;-71
2022/05/09 00:26:47;;;;;;;17.00;4.30;;;7.30;99.90;;;;;;4964626;28;20061;-71
2022/05/09 00:29:14;;;;;;;19.25;4.20;;;7.20;99.90;;;;;;4968684;28;20420;-71
2022/05/09 00:31:43;;;;;;;19.58;4.90;;;7.20;99.90;;;;;;4964607;28;20046;-71
2022/05/09 00:34:16;;;;;;;20.42;4.88;;;7.10;99.90;;;;;;4966203;28;20129;-71
2022/05/09 00:36:42;;;;;;;20.30;4.63;;;7.10;99.90;;;;;;4965921;28;20050;-71
2022/05/09 00:39:07;;;;;;;14.23;4.32;;;7.10;99.90;;;;;;4965062;28;20042;-71
2022/05/09 00:41:40;;;;;;;20.98;5.00;;;7.10;99.90;;;;;;4964192;28;20049;-71
2022/05/09 00:44:07;;;;;;;;;;;7.10;99.90;;;;;;4966122;28;20050;-71
2022/05/09 00:46:33;;;;;;;17.65;4.57;;;7.10;99.90;;;;;;4978648;28;20393;-71
2022/05/09 00:49:19;;;;;;;15.57;4.18;;;7.20;99.90;;;;;;4966297;28;20039;-71
2022/05/09 00:51:55;;;;;;;13.57;4.00;;;7.20;99.90;;;;;;4961916;28;20059;-71
2022/05/09 00:54:22;;;;;;;12.65;3.28;;;7.10;99.90;;;;;;4964531;28;20100;-71
2022/05/09 00:57:00;;;;;;;10.93;3.47;;;7.00;99.90;;;;;;4966621;28;20038;-71
2022/05/09 00:59:30;;;;;;;9.35;3.40;;;6.90;99.90;;;;;;4962158;28;20405;-71
2022/05/09 01:01:56;;;;;;;8.25;3.58;;;6.80;99.90;;;;;;4968406;28;20053;-71
2022/05/09 01:04:26;;;;;;;14.48;4.40;;;6.70;99.90;;;;;;4965063;28;20069;-71
2022/05/09 01:06:54;;;;;;;11.48;4.22;;;6.80;99.90;;;;;;4966367;28;20046;-71
2022/05/09 01:09:20;;;;;;;12.05;4.15;;;6.80;99.90;;;;;;4965746;28;20043;-71
2022/05/09 01:11:47;;;;;;;17.70;4.53;;;6.80;99.90;;;;;;4963995;28;20054;-71
2022/05/09 01:14:22;;;;;;;9.25;3.63;;;6.90;99.90;;;;;;4964356;28;20436;-71
2022/05/09 01:16:48;;;;;;;19.02;4.57;;;6.90;99.90;;;;;;4963502;28;20572;-71
2022/05/09 01:19:47;;;;;;;13.95;3.80;;;6.90;99.90;;;;;;4965697;28;20053;-71
2022/05/09 01:22:25;;;;;;;14.60;4.63;;;6.90;99.90;;;;;;4959904;28;20121;-70
2022/05/09 01:24:52;;;;;;;13.05;3.85;;;6.90;99.90;;;;;;4982968;28;20390;-71
2022/05/09 01:27:18;;;;;;;12.45;3.72;;;6.80;99.90;;;;;;4964149;28;20035;-71
2022/05/09 01:29:56;;;;;;;11.93;3.63;;;6.70;99.90;;;;;;4963910;28;20475;-71
2022/05/09 01:32:34;;;;;;;12.23;3.65;;;6.70;99.90;;;;;;4964289;28;21208;-71
2022/05/09 01:35:07;;;;;;;16.23;4.50;;;6.70;99.90;;;;;;4963393;28;20101;-71
2022/05/09 01:37:33;;;;;;;;;;;6.70;99.90;;;;;;4966079;28;20074;-71
2022/05/09 01:39:59;;;;;;;20.38;4.82;;;6.70;99.90;;;;;;4963144;28;19922;-71
2022/05/09 01:42:25;;;;;;;21.45;4.88;;;6.70;99.90;;;;;;4964055;28;20050;-71
2022/05/09 01:44:51;;;;;;;13.75;4.45;;;6.60;99.90;;;;;;4964770;28;20051;-71
2022/05/09 01:50:01;;;;;;;19.85;5.57;;;6.70;99.90;;;;;;4962207;28;20062;-71
2022/05/09 01:52:27;;;;;;;12.27;4.68;;;6.70;99.90;;;;;;4960990;28;20043;-71
2022/05/09 01:54:53;;;;;;;15.07;4.88;;;6.70;99.90;;;;;;4980883;28;20082;-71
2022/05/09 01:57:19;;;;;;;24.00;5.43;;;6.60;99.90;;;;;;4965092;28;20058;-71
2022/05/09 01:59:45;;;;;;;17.02;4.95;;;6.70;99.90;;;;;;4964596;28;20046;-71
2022/05/09 02:02:15;;;;;;;13.50;4.63;;;6.70;99.90;;;;;;4966920;28;20046;-71
2022/05/09 02:04:41;;;;;;;15.98;4.72;;;6.60;99.90;;;;;;4964779;28;20035;-71
2022/05/09 02:07:13;;;;;;;15.02;4.70;;;6.60;99.90;;;;;;4963741;28;20098;-71
2022/05/09 02:09:43;;;;;;;19.65;5.43;;;6.50;99.90;;;;;;4967177;28;20461;-70
2022/05/09 02:12:10;;;;;;;13.75;5.18;;;6.50;99.90;;;;;;4966422;28;20061;-71
2022/05/09 02:14:37;;;;;;;15.45;4.82;;;6.40;99.90;;;;;;4967073;28;20035;-71
2022/05/09 02:17:04;;;;;;;17.63;5.35;;;6.40;99.90;;;;;;4985191;28;20042;-70
2022/05/09 02:19:30;;;;;;;14.15;4.75;;;6.40;99.90;;;;;;4960796;28;20042;-71
2022/05/09 02:21:56;;;;;;;11.48;4.47;;;6.40;99.90;;;;;;4967550;28;20044;-71
2022/05/09 02:24:22;;;;;;;14.70;5.00;;;6.40;99.90;;;;;;4964993;28;20043;-71
2022/05/09 02:26:48;;;;;;;14.15;5.05;;;6.40;99.90;;;;;;4966670;28;20037;-71
2022/05/09 02:29:14;;;;;;;18.52;5.43;;;6.30;99.90;;;;;;4963123;28;20129;-71
2022/05/09 02:31:40;;;;;;;12.60;5.30;;;6.30;99.90;;;;;;4960904;28;20049;-71
2022/05/09 02:34:06;;;;;;;13.70;5.22;;;6.30;99.90;;;;;;4963785;28;20054;-71
2022/05/09 02:36:31;;;;;;;18.70;5.72;;;6.30;99.90;;;;;;4965669;28;20046;-71
2022/05/09 02:38:57;;;;;;;14.10;5.70;;;6.30;99.90;;;;;;4962103;28;20051;-71
2022/05/09 02:41:23;;;;;;;23.35;6.25;;;6.30;99.90;;;;;;4960990;28;20047;-71
2022/05/09 02:43:48;;;;;;;14.70;5.30;;;6.30;99.90;;;;;;4959914;28;20049;-71
2022/05/09 02:46:14;;;;;;;13.55;5.47;;;6.20;99.90;;;;;;4958100;28;20054;-71
2022/05/09 02:48:40;;;;;;;13.93;5.65;;;6.20;99.90;;;;;;4964757;28;20047;-71
2022/05/09 02:51:08;;;;;;;15.82;5.82;;;6.20;99.90;;;;;;4965204;28;20053;-71
2022/05/09 02:53:34;;;;;;;20.98;6.20;;;6.20;99.90;;;;;;4964691;28;20086;-71
2022/05/09 02:56:00;;;;;;;14.90;6.00;;;6.20;99.90;;;;;;4964750;28;20142;-71
2022/05/09 02:58:26;;;;;;;19.98;6.13;;;6.20;99.90;;;;;;4963180;28;20043;-71
2022/05/09 03:00:52;;;;;;;18.77;5.95;;;6.10;99.90;;;;;;4947983;28;21715;-71
2022/05/09 03:06:02;;;;;;;21.92;5.72;;;6.10;99.90;;;;;;4976491;28;20122;-71
2022/05/09 03:08:29;;;;;;;16.33;5.53;;;6.10;99.90;;;;;;4960916;28;20078;-71
2022/05/09 03:10:55;;;;;;;18.95;5.85;;;6.10;99.90;;;;;;4963302;28;20043;-71
2022/05/09 03:13:21;;;;;;;18.50;5.40;;;6.10;99.90;;;;;;4965401;28;20045;-71
2022/05/09 03:15:47;;;;;;;19.00;6.30;;;6.10;99.90;;;;;;4963573;28;20042;-71
2022/05/09 03:18:17;;;;;;;16.33;5.82;;;6.10;99.90;;;;;;4960778;28;20054;-71
2022/05/09 03:20:43;;;;;;;17.63;5.97;;;6.10;99.90;;;;;;4966000;28;20043;-71
2022/05/09 03:23:10;;;;;;;16.33;6.00;;;6.10;99.90;;;;;;4963441;28;20055;-71
2022/05/09 03:25:37;;;;;;;13.32;5.18;;;6.10;99.90;;;;;;4965292;28;20038;-71
2022/05/09 03:28:04;;;;;;;18.02;5.97;;;6.10;99.90;;;;;;4963886;28;20513;-71
2022/05/09 03:30:32;;;;;;;17.73;6.00;;;6.00;99.90;;;;;;4965975;28;20047;-71
2022/05/09 03:32:57;;;;;;;18.23;5.60;;;6.00;99.90;;;;;;4961875;28;20049;-71
2022/05/09 03:35:23;;;;;;;16.60;5.90;;;6.00;99.90;;;;;;4965894;28;20098;-71
2022/05/09 03:37:49;;;;;;;16.92;6.15;;;6.00;99.90;;;;;;4964861;28;20050;-71
2022/05/09 03:40:15;;;;;;;14.10;5.57;;;6.00;99.90;;;;;;4965253;28;20049;-71
2022/05/09 03:42:40;;;;;;;17.10;6.35;;;6.00;99.90;;;;;;4964561;28;20039;-71
2022/05/09 03:45:07;;;;;;;18.38;6.13;;;6.00;99.90;;;;;;4964358;28;20046;-71
2022/05/09 03:47:33;;;;;;;14.02;6.00;;;6.00;99.90;;;;;;4968044;28;21715;-71
2022/05/09 03:49:58;;;;;;;13.00;5.25;;;5.90;99.90;;;;;;4967232;28;20038;-71
2022/05/09 03:52:25;;;;;;;15.70;6.03;;;5.90;99.90;;;;;;4968205;28;20053;-71
2022/05/09 03:54:51;;;;;;;15.50;5.35;;;5.90;99.90;;;;;;4966172;28;20050;-71
2022/05/09 03:57:16;;;;;;;15.85;5.57;;;5.80;99.90;;;;;;4967729;28;20053;-71
2022/05/09 03:59:42;;;;;;;15.38;5.53;;;5.80;99.90;;;;;;4964094;28;20054;-71
2022/05/09 04:02:10;;;;;;;16.63;6.25;;;5.80;99.90;;;;;;4966864;28;20050;-71
2022/05/09 04:04:35;;;;;;;14.07;4.93;;;5.80;99.90;;;;;;4966262;28;20393;-71
2022/05/09 04:07:01;;;;;;;12.82;5.10;;;5.80;99.90;;;;;;4964873;28;20043;-71
2022/05/09 04:09:27;;;;;;;6.30;3.75;;;5.80;99.90;;;;;;4963494;28;20128;-72
2022/05/09 04:11:53;;;;;;;7.15;3.58;;;5.70;99.90;;;;;;4978336;28;20077;-71
2022/05/09 04:16:49;;;;;;;4.30;3.58;;;5.60;99.90;;;;;;4962956;28;20042;-71
2022/05/09 04:17:08;;;;;;;5.13;3.38;;;5.50;99.90;;;;;;4962986;28;20043;-71
2022/05/09 04:19:34;;;;;;;9.85;4.40;;;5.50;99.90;;;;;;4964454;28;20053;-68
2022/05/09 04:22:02;;;;;;;9.52;4.15;;;5.40;99.90;;;;;;4968038;28;20042;-69
2022/05/09 04:24:29;;;;;;;5.75;3.42;;;5.50;99.90;;;;;;4967658;28;20401;-69
2022/05/09 04:26:56;;;;;;;4.93;3.60;;;5.50;99.90;;;;;;4968299;28;20637;-70
2022/05/09 04:29:21;;;;;;;5.32;3.75;;;5.40;99.90;;;;;;4963631;28;20509;-69
2022/05/09 04:31:47;;;;;;;6.10;4.30;;;5.40;99.90;;;;;;4963524;28;20062;-70
2022/05/09 04:34:13;;;;;;;6.15;4.30;;;5.40;99.90;;;;;;4965635;28;20456;-69
2022/05/09 04:36:39;;;;;;;9.02;5.32;;;5.40;99.90;;;;;;4963715;28;20042;-69
2022/05/09 04:39:05;;;;;;;13.55;4.43;;;5.50;99.90;;;;;;4964231;28;20047;-69
2022/05/09 04:41:32;;;;;;;7.47;4.10;;;5.50;99.90;;;;;;4965111;28;20517;-70
2022/05/09 04:43:59;;;;;;;7.93;4.10;;;5.60;99.90;;;;;;4964340;28;20545;-69
2022/05/09 04:46:25;;;;;;;8.48;3.97;;;5.60;99.90;;;;;;4966980;28;20070;-69
2022/05/09 04:48:51;;;;;;;8.88;3.95;;;5.70;99.90;;;;;;4960729;28;20441;-70
2022/05/09 04:51:17;;;;;;;8.70;4.38;;;5.70;99.90;;;;;;4964368;28;20035;-69
2022/05/09 04:53:43;;;;;;;10.30;4.72;;;5.80;99.90;;;;;;4968909;28;20458;-70
2022/05/09 04:56:10;;;;;;;9.70;4.40;;;5.80;99.90;;;;;;4965227;28;20445;-70
2022/05/09 04:58:35;;;;;;;12.23;4.68;;;5.80;99.90;;;;;;4966568;28;20426;-70
2022/05/09 05:01:01;;;;;;;14.52;5.38;;;5.90;99.90;;;;;;4963314;28;20049;-69
2022/05/09 05:03:27;;;;;;;15.02;5.45;;;5.90;99.90;;;;;;4986391;23;20446;-70
2022/05/09 05:05:52;;;;;;;9.43;5.15;;;6.00;99.90;;;;;;4969635;28;20041;-71
2022/05/09 05:08:19;;;;;;;16.58;4.68;;;6.00;99.90;;;;;;4964753;28;20035;-70
2022/05/09 05:10:45;;;;;;;13.68;5.30;;;6.10;99.90;;;;;;4966808;28;20397;-70
2022/05/09 05:13:12;;;;;;;12.55;5.90;;;6.10;99.90;;;;;;4964266;28;20034;-70
2022/05/09 05:15:39;;;;;;;11.07;5.72;;;6.20;99.90;;;;;;4982475;28;20047;-70
2022/05/09 05:18:05;;;;;;;13.20;5.53;;;6.30;99.90;;;;;;4964339;28;20478;-70
2022/05/09 05:20:31;;;;;;;22.08;6.50;;;6.30;99.90;;;;;;4966559;28;20062;-70
2022/05/09 05:22:57;;;;;;;16.23;5.88;;;6.40;99.90;;;;;;4959012;28;20145;-71
2022/05/09 05:25:29;;;;;;;22.83;8.50;;;6.40;99.90;;;;;;4965833;28;20405;-71
2022/05/09 05:27:55;;;;;;;23.50;8.25;;;6.50;99.90;;;;;;4965661;28;20035;-70
2022/05/09 05:30:22;;;;;;;21.80;8.07;;;6.60;99.90;;;;;;4963372;28;20523;-70
2022/05/09 05:32:48;;;;;;;21.60;7.78;;;6.70;99.90;;;;;;4962972;28;20086;-70
2022/05/09 05:35:17;;;;;;;25.08;8.23;;;6.80;99.90;;;;;;4963575;28;20112;-71
2022/05/09 05:37:43;;;;;;;20.70;7.95;;;6.80;99.90;;;;;;4963658;28;20058;-70
2022/05/09 05:40:10;;;;;;;20.33;8.10;;;6.90;99.90;;;;;;4961150;28;20035;-70
2022/05/09 05:42:43;;;;;;;21.73;7.97;;;7.00;99.90;;;;;;4961058;28;20042;-70
2022/05/09 05:45:11;;;;;;;21.08;8.43;;;7.10;99.90;;;;;;4960005;28;20148;-70
2022/05/09 05:47:37;;;;;;;22.35;8.65;;;7.20;99.90;;;;;;4962581;28;20046;-70
2022/05/09 05:50:05;;;;;;;18.85;8.00;;;7.30;99.90;;;;;;4958515;28;20046;-70
2022/05/09 05:52:32;;;;;;;18.40;8.60;;;7.40;99.90;;;;;;4963969;28;20066;-70
2022/05/09 05:54:58;;;;;;;18.50;7.60;;;7.50;99.90;;;;;;4962622;28;20121;-70
2022/05/09 05:57:28;;;;;;;22.00;8.05;;;7.60;99.90;;;;;;4966072;28;20489;-70
2022/05/09 05:59:56;;;;;;;23.60;8.77;;;7.70;99.90;;;;;;4963141;28;20042;-70
2022/05/09 06:02:23;;;;;;;26.10;8.40;;;7.80;99.90;;;;;;4966124;28;20050;-71
2022/05/09 06:04:50;;;;;;;22.70;7.97;;;8.00;99.90;;;;;;4949269;28;20053;-71
2022/05/09 06:07:16;;;;;;;26.40;8.68;;;8.00;99.90;;;;;;4962668;28;20039;-71
2022/05/09 06:09:46;;;;;;;23.20;8.48;;;8.20;99.90;;;;;;4962371;28;20132;-71
2022/05/09 06:12:15;;;;;;;23.55;8.88;;;8.20;99.90;;;;;;4963573;28;20057;-70
2022/05/09 06:14:41;;;;;;;22.05;8.60;;;8.40;99.90;;;;;;4960026;28;20428;-71
2022/05/09 06:17:08;;;;;;;21.95;7.57;;;8.50;99.90;;;;;;4961184;28;20038;-70
2022/05/09 06:19:34;;;;;;;19.65;8.27;;;8.60;99.90;;;;;;4980876;28;20043;-71
2022/05/09 06:22:01;;;;;;;21.77;7.43;;;8.70;99.90;;;;;;4962461;28;20040;-70
2022/05/09 06:24:27;;;;;;;27.80;7.55;;;8.90;99.90;;;;;;4960668;28;20053;-70
2022/05/09 06:26:53;;;;;;;20.95;7.78;;;9.00;99.90;;;;;;4964480;28;20449;-71
2022/05/09 06:29:18;;;;;;;18.88;7.88;;;9.10;99.90;;;;;;4963572;28;20056;-71
2022/05/09 06:31:45;;;;;;;25.70;7.70;;;9.30;99.90;;;;;;4962581;28;20404;-70
2022/05/09 06:34:13;;;;;;;20.92;7.75;;;9.40;99.90;;;;;;4953606;28;20050;-70
2022/05/09 06:36:40;;;;;;;22.30;8.18;;;9.50;99.90;;;;;;4965616;28;20087;-71
2022/05/09 06:39:08;;;;;;;25.25;7.55;;;9.70;99.90;;;;;;4963148;28;20050;-70
2022/05/09 06:41:33;;;;;;;27.38;7.55;;;9.80;99.90;;;;;;4967083;28;20046;-71
2022/05/09 06:43:59;;;;;;;19.25;7.40;;;10.00;99.90;;;;;;4968010;28;20038;-71
2022/05/09 06:46:25;;;;;;;20.60;7.25;;;10.10;99.90;;;;;;4966125;28;20429;-71
2022/05/09 06:48:51;;;;;;;20.10;6.75;;;10.30;99.90;;;;;;4968142;28;20043;-70
2022/05/09 06:51:17;;;;;;;20.88;6.93;;;10.40;99.90;;;;;;4966556;28;20051;-71
2022/05/09 06:53:44;;;;;;;20.00;6.45;;;10.60;99.90;;;;;;4969551;28;20066;-71
2022/05/09 06:56:10;;;;;;;22.10;6.68;;;10.80;99.90;;;;;;4967016;28;20098;-71
2022/05/09 06:58:36;;;;;;;22.48;6.50;;;10.90;99.90;;;;;;4962721;28;20046;-71
2022/05/09 07:01:15;;;;;;;20.83;6.80;;;11.10;99.90;;;;;;4978402;28;20053;-71
2022/05/09 07:03:42;;;;;;;18.08;6.68;;;11.20;99.90;;;;;;4961785;28;20105;-71
2022/05/09 07:06:07;;;;;;;17.92;6.05;;;11.40;99.90;;;;;;4962692;28;20066;-71
2022/05/09 07:08:34;;;;;;;19.80;6.20;;;11.60;99.90;;;;;;4984682;28;20594;-71
2022/05/09 07:11:01;;;;;;;23.80;6.15;;;11.80;99.90;;;;;;4965808;28;20035;-71
2022/05/09 07:13:26;;;;;;;21.65;6.25;;;11.90;99.90;;;;;;4966229;28;20058;-71
2022/05/09 07:15:57;;;;;;;17.55;6.05;;;12.00;99.90;;;;;;4950441;28;20038;-71
2022/05/09 07:18:27;;;;;;;17.52;6.07;;;12.20;99.90;;;;;;4963879;28;20261;-71
2022/05/09 07:20:53;;;;;;;17.60;5.97;;;12.30;99.90;;;;;;4965411;28;20126;-74
2022/05/09 07:23:19;;;;;;;15.63;5.78;;;12.50;99.90;;;;;;4969158;28;20039;-73
2022/05/09 07:25:45;;;;;;;16.52;5.93;;;12.60;99.90;;;;;;4949859;28;20061;-76
2022/05/09 07:28:12;;;;;;;16.30;5.90;;;12.70;99.90;;;;;;4968544;28;20035;-76
2022/05/09 07:30:38;;;;;;;16.00;5.60;;;12.80;99.90;;;;;;4965189;28;20069;-75
2022/05/09 07:33:04;;;;;;;17.08;5.97;;;12.90;99.90;;;;;;4967368;28;20042;-75
2022/05/09 07:35:32;;;;;;;18.23;5.88;;;12.90;99.90;;;;;;4968985;28;20093;-75
2022/05/09 07:37:58;;;;;;;21.45;5.90;;;13.00;99.90;;;;;;4964778;28;20043;-75
2022/05/09 07:40:23;;;;;;;14.40;5.85;;;13.10;99.90;;;;;;4982922;28;20038;-75
2022/05/09 07:42:49;;;;;;;16.88;5.60;;;13.20;99.90;;;;;;4951236;28;20038;-75
2022/05/09 07:45:19;;;;;;;15.05;5.63;;;13.40;99.90;;;;;;4967532;28;20031;-75
2022/05/09 07:47:46;;;;;;;20.23;6.55;;;13.50;99.90;;;;;;4963030;28;20044;-75
2022/05/09 07:50:14;;;;;;;19.55;6.50;;;13.70;99.90;;;;;;4978755;28;20047;-75
2022/05/09 07:52:42;;;;;;;16.67;6.20;;;13.80;99.90;;;;;;4962902;28;20131;-75
2022/05/09 07:55:13;;;;;;;17.90;6.25;;;13.90;99.90;;;;;;4965057;28;20046;-75
2022/05/09 07:57:39;;;;;;;17.52;5.95;;;14.00;99.90;;;;;;4982700;28;20051;-76
2022/05/09 08:00:05;;;;;;;16.08;5.25;;;14.10;99.90;;;;;;4949665;28;20109;-76
2022/05/09 08:02:32;;;;;;;16.95;5.25;;;14.30;99.90;;;;;;4980710;28;20181;-76
2022/05/09 08:04:58;;;;;;;18.25;5.82;;;14.40;99.90;;;;;;4983034;28;20042;-76
2022/05/09 08:07:24;;;;;;;19.80;6.03;;;14.60;99.90;;;;;;4968364;28;20031;-76
2022/05/09 08:09:50;;;;;;;15.77;5.60;;;14.80;99.90;;;;;;4985477;28;20120;-76
2022/05/09 08:12:16;;;;;;;18.70;5.78;;;14.90;99.90;;;;;;4966554;28;20035;-76
2022/05/09 08:14:43;;;;;;;17.40;5.53;;;14.90;99.90;;;;;;4967607;28;20066;-76
2022/05/09 08:17:09;;;;;;;14.05;5.80;;;15.10;99.90;;;;;;4968182;28;20037;-76
2022/05/09 08:19:37;;;;;;;18.73;5.47;;;15.20;99.90;;;;;;4967738;28;20548;-75
2022/05/09 08:22:04;;;;;;;12.82;5.00;;;15.30;99.90;;;;;;4967178;28;20035;-76
2022/05/09 08:24:30;;;;;;;14.30;5.30;;;15.40;99.90;;;;;;4968164;28;20066;-76
2022/05/09 08:26:55;;;;;;;19.52;5.15;;;15.60;99.90;;;;;;4964882;28;20079;-76
2022/05/09 08:29:21;;;;;;;14.48;5.20;;;15.70;99.90;;;;;;4968894;28;20093;-76
2022/05/09 08:31:47;;;;;;;17.17;4.93;;;15.80;99.90;;;;;;4965109;28;20050;-76
2022/05/09 08:34:14;;;;;;;15.57;4.90;;;15.90;99.90;;;;;;4950070;28;20071;-76
2022/05/09 08:36:46;;;;;;;15.20;4.78;;;16.10;99.90;;;;;;4962569;28;20043;-76
2022/05/09 08:39:15;;;;;;;16.87;4.70;;;16.20;99.90;;;;;;4980616;28;20043;-75
2022/05/09 08:41:51;;;;;;;20.10;4.82;;;16.30;99.90;;;;;;4967337;28;20042;-76
2022/05/09 08:44:51;;;;;;;12.15;4.43;;;16.50;98.80;;;;;;4967352;28;20049;-76
2022/05/09 08:47:44;;;;;;;18.63;4.90;;;16.70;97.90;;;;;;4983870;28;20039;-76
2022/05/09 08:50:38;;;;;;;18.55;5.03;;;16.80;95.60;;;;;;4966775;28;20048;-76
2022/05/09 08:53:09;;;;;;;13.55;4.75;;;17.00;97.30;;;;;;4967871;28;20400;-76
2022/05/09 08:55:38;;;;;;;16.25;5.03;;;17.10;95.20;;;;;;4966999;28;20054;-76
2022/05/09 08:58:42;;;;;;;15.77;4.65;;;17.20;95.00;;;;;;4950856;28;20140;-76
2022/05/09 09:01:16;;;;;;;13.50;4.38;;;17.30;92.80;;;;;;4980916;28;20042;-76
2022/05/09 09:03:51;;;;;;;121.80;8.45;;;17.40;89.70;;;;;;4966982;28;20043;-76
2022/05/09 09:06:34;;;;;;;19.42;4.97;;;17.60;89.90;;;;;;4967228;28;20156;-76
2022/05/09 09:09:02;;;;;;;16.33;4.43;;;17.70;90.50;;;;;;4965700;28;20044;-76
2022/05/09 09:11:55;;;;;;;17.95;4.63;;;17.70;91.50;;;;;;4969151;28;20069;-76
2022/05/09 09:14:33;;;;;;;13.07;3.58;;;17.80;84.50;;;;;;4963365;28;20039;-76
2022/05/09 09:17:28;;;;;;;13.30;4.07;;;17.90;84.20;;;;;;4983890;28;20047;-76
2022/05/09 09:20:02;;;;;;;12.82;3.70;;;18.00;76.50;;;;;;4977128;28;20042;-76
2022/05/09 09:22:51;;;;;;;15.82;4.07;;;18.20;79.70;;;;;;4966489;28;20042;-76
2022/05/09 09:25:34;;;;;;;13.57;3.72;;;18.40;78.40;;;;;;4966209;28;20572;-76
2022/05/09 09:28:04;;;;;;;13.77;3.60;;;18.50;73.50;;;;;;4965874;28;20144;-76
2022/05/09 09:30:31;;;;;;;13.40;3.60;;;18.70;71.40;;;;;;4966284;28;20150;-76
2022/05/09 09:32:59;;;;;;;10.25;3.17;;;18.80;67.70;;;;;;4964239;28;20985;-77
2022/05/09 09:35:57;;;;;;;12.57;3.22;;;19.00;65.90;;;;;;4948135;28;21634;-76
2022/05/09 09:38:40;;;;;;;10.60;2.95;;;19.20;59.30;;;;;;4950935;28;20042;-77
2022/05/09 09:41:23;;;;;;;12.80;3.70;;;19.40;58.50;;;;;;4980814;28;20035;-76
2022/05/09 09:44:01;;;;;;;11.13;3.10;;;19.50;54.90;;;;;;4965215;28;20050;-76
2022/05/09 09:46:26;;;;;;;13.10;3.33;;;19.60;57.00;;;;;;4964985;28;20078;-76
2022/05/09 09:49:07;;;;;;;12.82;3.55;;;19.70;57.50;;;;;;4966402;28;20078;-77
2022/05/09 09:51:48;;;;;;;11.35;3.25;;;19.80;52.70;;;;;;4968404;28;20165;-77
2022/05/09 09:54:20;;;;;;;11.65;3.20;;;19.80;55.20;;;;;;4967869;28;20035;-76
2022/05/09 09:56:46;;;;;;;9.68;2.70;;;20.00;53.90;;;;;;4967323;28;20050;-76
2022/05/09 09:59:11;;;;;;;11.55;2.83;;;20.20;54.00;;;;;;4981341;28;20089;-77
2022/05/09 10:01:37;;;;;;;10.68;3.05;;;20.30;56.20;;;;;;4968765;28;20096;-77
2022/05/09 10:04:12;;;;;;;8.57;3.10;;;20.30;54.70;;;;;;4948139;28;20077;-77
2022/05/09 10:06:59;;;;;;;11.98;3.17;;;20.50;57.90;;;;;;4962480;28;20109;-77
2022/05/09 10:09:45;;;;;;;9.95;3.13;;;20.70;54.00;;;;;;4961697;28;20070;-76
2022/05/09 10:12:25;;;;;;;12.30;3.30;;;20.90;54.40;;;;;;4962893;28;20042;-77
2022/05/09 10:14:52;;;;;;;13.13;3.28;;;21.10;52.90;;;;;;4960747;28;20141;-76
2022/05/09 10:17:33;;;;;;;12.77;2.97;;;21.30;51.20;;;;;;4964551;28;20042;-77
2022/05/09 10:20:38;;;;;;;8.50;2.77;;;21.40;48.90;;;;;;4961991;28;20035;-77
2022/05/09 10:26:00;;;;;;;11.20;2.92;;;21.60;48.60;;;;;;4963359;28;20058;-77
2022/05/09 10:28:30;;;;;;;11.25;3.00;;;21.70;51.40;;;;;;4965531;28;20037;-77
2022/05/09 10:31:03;;;;;;;10.50;3.28;;;21.90;50.50;;;;;;4964356;28;20081;-77
2022/05/09 10:33:47;;;;;;;11.48;2.88;;;22.00;49.70;;;;;;4965001;28;20497;-77
2022/05/09 10:36:29;;;;;;;12.68;3.28;;;22.00;48.30;;;;;;4963862;28;20058;-77
2022/05/09 10:38:57;;;;;;;8.93;2.78;;;22.00;48.70;;;;;;4964373;28;20038;-77
2022/05/09 10:41:55;;;;;;;8.98;3.00;;;22.10;48.40;;;;;;4947320;28;20031;-77
2022/05/09 10:44:34;;;;;;;9.10;2.78;;;22.10;46.80;;;;;;4960184;28;20420;-77
2022/05/09 10:47:22;;;;;;;11.80;3.00;;;22.10;48.80;;;;;;4963350;28;20039;-77
2022/05/09 10:50:04;;;;;;;12.35;3.35;;;22.30;48.50;;;;;;4882729;28;20061;-77
2022/05/09 10:53:08;;;;;;;8.02;2.83;;;22.30;48.60;;;;;;4963314;28;20038;-77
2022/05/09 10:55:46;;;;;;;10.00;2.70;;;22.60;47.60;;;;;;4963841;28;20039;-77
2022/05/09 10:58:25;;;;;;;7.85;2.40;;;22.70;47.80;;;;;;4948251;28;20141;-76
2022/05/09 11:01:17;;;;;;;6.95;2.60;;;22.80;44.40;;;;;;4964813;28;20050;-76
2022/05/09 11:03:45;;;;;;;10.30;2.78;;;22.90;46.60;;;;;;4912967;28;20058;-77
2022/05/09 11:06:23;;;;;;;12.90;3.10;;;22.70;44.80;;;;;;4963822;28;20138;-77
2022/05/09 11:08:57;;;;;;;9.63;2.92;;;22.50;45.00;;;;;;4974948;23;20039;-77
2022/05/09 11:11:41;;;;;;;8.63;2.70;;;22.40;45.80;;;;;;4981746;28;20030;-77
2022/05/09 11:14:36;;;;;;;9.05;2.80;;;22.60;47.20;;;;;;4982237;28;20043;-77
2022/05/09 11:17:35;;;;;;;8.98;3.00;;;22.80;45.90;;;;;;4982740;28;20117;-77
2022/05/09 11:20:15;;;;;;;11.55;2.90;;;23.10;48.50;;;;;;4963296;28;20057;-76
2022/05/09 11:22:57;;;;;;;8.05;2.50;;;23.30;45.90;;;;;;4965394;28;20039;-76
2022/05/09 11:25:48;;;;;;;7.40;2.72;;;23.60;46.70;;;;;;4969930;28;20038;-76
2022/05/09 11:28:38;;;;;;;9.52;2.92;;;23.90;46.10;;;;;;4965022;28;20071;-76
2022/05/09 11:31:08;;;;;;;14.57;2.90;;;24.20;45.20;;;;;;4966327;28;20084;-76
2022/05/09 11:34:09;;;;;;;10.07;3.42;;;24.40;44.10;;;;;;4967523;28;20121;-76
2022/05/09 11:36:53;;;;;;;8.55;3.00;;;24.60;45.60;;;;;;4910031;28;20046;-76
2022/05/09 11:39:44;;;;;;;10.07;3.10;;;24.60;43.30;;;;;;4953329;28;20043;-76
2022/05/09 11:45:41;;;;;;;8.63;2.70;;;24.20;44.50;;;;;;4947025;28;20039;-77
2022/05/09 11:48:36;;;;;;;16.58;3.42;;;23.90;44.70;;;;;;4967229;28;20127;-76
2022/05/09 11:51:42;;;;;;;9.23;2.83;;;24.20;45.50;;;;;;4969226;28;20493;-77
2022/05/09 11:54:17;;;;;;;10.23;3.00;;;24.50;43.70;;;;;;4952711;28;20042;-76
2022/05/09 11:56:50;;;;;;;9.02;2.75;;;24.80;45.20;;;;;;4973272;28;20034;-76
2022/05/09 11:59:25;;;;;;;9.68;2.80;;;25.10;43.60;;;;;;4966883;28;20049;-77
2022/05/09 12:02:10;;;;;;;13.77;3.97;;;25.20;42.20;;;;;;4970041;28;20035;-76
2022/05/09 12:04:35;;;;;;;7.95;2.80;;;25.20;42.40;;;;;;4972854;28;20042;-77
2022/05/09 12:07:21;;;;;;;8.05;2.60;;;25.40;42.70;;;;;;4953717;28;20409;-76
2022/05/09 12:10:15;;;;;;;9.48;2.70;;;25.40;40.20;;;;;;4881678;28;20051;-77
2022/05/09 12:12:49;;;;;;;8.55;3.10;;;25.40;43.00;;;;;;4969823;28;20553;-76
2022/05/09 12:15:14;;;;;;;12.50;2.80;;;25.00;41.00;;;;;;4968532;28;21569;-76
2022/05/09 12:17:42;;;;;;;9.50;3.10;;;25.00;41.40;;;;;;4967710;28;20062;-76
2022/05/09 12:20:26;;;;;;;10.73;3.03;;;24.80;41.70;;;;;;4967858;28;20045;-77
2022/05/09 12:23:03;;;;;;;6.65;2.83;;;24.90;41.90;;;;;;4968318;28;20501;-77
2022/05/09 12:25:41;;;;;;;9.32;2.75;;;25.00;41.10;;;;;;4966514;28;20035;-77
2022/05/09 12:28:26;;;;;;;9.68;2.50;;;25.30;42.60;;;;;;4970816;28;23428;-77
2022/05/09 12:31:04;;;;;;;7.22;2.40;;;25.50;40.70;;;;;;4965958;28;20433;-76
2022/05/09 12:33:47;;;;;;;12.80;3.00;;;25.40;43.00;;;;;;4986196;28;20027;-69
2022/05/09 12:36:18;;;;;;;8.70;2.80;;;25.60;41.90;;;;;;4966224;28;20126;-71
2022/05/09 12:38:49;;;;;;;7.20;2.50;;;25.80;42.60;;;;;;4968731;28;20449;-72
2022/05/09 12:41:23;;;;;;;9.65;3.10;;;26.20;40.10;;;;;;4969169;28;20393;-72
2022/05/09 12:43:55;;;;;;;8.32;2.40;;;26.40;42.60;;;;;;4968427;28;20066;-72
2022/05/09 12:46:45;;;;;;;9.18;2.30;;;26.80;40.50;;;;;;4974030;28;20045;-71
2022/05/09 12:49:14;;;;;;;9.98;2.20;;;27.00;40.20;;;;;;4991955;28;20035;-71
2022/05/09 12:51:44;;;;;;;8.18;2.60;;;26.60;36.90;;;;;;4968552;28;20040;-71
2022/05/09 12:54:14;;;;;;;7.15;2.10;;;26.00;39.40;;;;;;4969823;28;20030;-71
2022/05/09 12:56:51;;;;;;;8.00;2.00;;;26.20;39.90;;;;;;4983205;28;20073;-71
2022/05/09 12:59:18;;;;;;;9.43;2.28;;;26.00;39.10;;;;;;4966611;28;20043;-71
2022/05/09 13:02:00;;;;;;;10.18;2.42;;;26.30;39.10;;;;;;4964098;28;20093;-70
2022/05/09 13:04:28;;;;;;;;;;;26.50;38.80;;;;;;4965975;28;20042;-71
2022/05/09 13:07:08;;;;;;;9.88;2.08;;;26.80;37.80;;;;;;4982863;28;19925;-71
2022/05/09 13:09:45;;;;;;;13.57;2.60;;;26.60;38.70;;;;;;4968925;28;20485;-72
2022/05/09 13:12:23;;;;;;;6.45;2.03;;;26.80;39.80;;;;;;4972940;28;20035;-71
2022/05/09 13:14:54;;;;;;;9.65;1.80;;;26.50;36.90;;;;;;4963620;28;20075;-71
2022/05/09 13:17:26;;;;;;;7.00;1.87;;;26.50;38.80;;;;;;4984736;28;20046;-71